CmaCGm Ohio — 9HA4132 — position and weather

sailwx.info

Track history (hours):
 
Tides and Currents Weather Stations Pressure Air Temp Water Temp Dewpoint Dewpoint Depression Visibility Wind Speed Wind Dir Waves Ship Positions

CmaCGm Ohio

Last reported at 2018-Jun-08 10:38 UTC. Time now 2018-Jun-19 00:51 UTC.
Position S 28°06' W 073°55'.
Warning: this ship's position is 10 days out of date.

Length 300 m; draft 9.6 m.

Type: Ship (hazmat cat A). MMSI: 249167000.

Date/timePositionNaut miles runAvg speedWind from/ knotsBaromVisibWave heightAir tempDewpointWater temp
2018-Jun-08 10:38S 28°06' W 073°55'214.7
2018-Jun-08 10:30S 28°08' W 073°54'16614.9
2018-Jun-07 23:23S 30°44' W 072°50'1815.6
2018-Jun-07 22:12S 31°02' W 072°42'315.6
2018-Jun-07 22:00S 31°04' W 072°41'815.7
2018-Jun-07 21:29S 31°12' W 072°38'1115.7
2018-Jun-07 20:48S 31°22' W 072°34'515.8
2018-Jun-07 20:29S 31°27' W 072°32'815.7
2018-Jun-07 20:00S 31°34' W 072°29'1515.7
2018-Jun-07 19:02S 31°48' W 072°23'015.8
2018-Jun-07 19:00S 31°49' W 072°23'815.8
2018-Jun-07 18:30S 31°56' W 072°20'815.5
2018-Jun-07 18:00S 32°03' W 072°16'815.6
2018-Jun-07 17:29S 32°11' W 072°13'815.5
2018-Jun-07 17:00S 32°18' W 072°10'815.8
2018-Jun-07 16:29S 32°26' W 072°07'816.0
2018-Jun-07 16:00S 32°33' W 072°04'815.5
2018-Jun-07 15:30S 32°40' W 072°01'713.8
2018-Jun-07 15:00S 32°47' W 071°59'815.7
2018-Jun-07 14:29S 32°55' W 071°57'  
Track history (hours):
 
Tides and Currents Weather Stations Pressure Air Temp Water Temp Dewpoint Dewpoint Depression Visibility Wind Speed Wind Dir Waves Ship Positions

CmaCGm Ohio

Last reported at 2018-Jun-08 10:38 UTC. Time now 2018-Jun-19 00:51 UTC.
Position S 28°06' W 073°55'.
Warning: this ship's position is 10 days out of date.

Length 300 m; draft 9.6 m.

Type: Ship (hazmat cat A). MMSI: 249167000.

Date/timePositionNaut miles runAvg speedWind from/ knotsBaromVisibWave heightAir tempDewpointWater temp
2018-Jun-08 10:38S 28°06' W 073°55'214.7
2018-Jun-08 10:30S 28°08' W 073°54'16614.9
2018-Jun-07 23:23S 30°44' W 072°50'1815.6
2018-Jun-07 22:12S 31°02' W 072°42'315.6
2018-Jun-07 22:00S 31°04' W 072°41'815.7
2018-Jun-07 21:29S 31°12' W 072°38'1115.7
2018-Jun-07 20:48S 31°22' W 072°34'515.8
2018-Jun-07 20:29S 31°27' W 072°32'815.7
2018-Jun-07 20:00S 31°34' W 072°29'1515.7
2018-Jun-07 19:02S 31°48' W 072°23'015.8
2018-Jun-07 19:00S 31°49' W 072°23'815.8
2018-Jun-07 18:30S 31°56' W 072°20'815.5
2018-Jun-07 18:00S 32°03' W 072°16'815.6
2018-Jun-07 17:29S 32°11' W 072°13'815.5
2018-Jun-07 17:00S 32°18' W 072°10'815.8
2018-Jun-07 16:29S 32°26' W 072°07'816.0
2018-Jun-07 16:00S 32°33' W 072°04'815.5
2018-Jun-07 15:30S 32°40' W 072°01'713.8
2018-Jun-07 15:00S 32°47' W 071°59'815.7
2018-Jun-07 14:29S 32°55' W 071°57'  

Dump ship's entire track history